Time;durP1;ratioP1;P1;durP2;ratioP2;P2;SDS_P1;SDS_P2;PMS_P1;PMS_P2;Temp;Humidity;BMP_temperature;BMP_pressure;BME280_temperature;BME280_humidity;BME280_pressure;Samples;Min_cycle;Max_cycle;Signal;HPM_P1;HPM_P2
2021/04/06 00:02:13;;;;;;;3.83;1.20;;;;;;;8.05;53.02;96619.28;5030544;28;20105;-75
2021/04/06 00:04:47;;;;;;;2.67;1.80;;;;;;;8.06;53.25;96619.00;5030772;28;20034;-74
2021/04/06 00:07:14;;;;;;;2.65;1.70;;;;;;;8.07;53.39;96614.34;5015818;28;20026;-75
2021/04/06 00:09:42;;;;;;;3.33;2.35;;;;;;;8.05;53.65;96611.13;5037518;28;20022;-75
2021/04/06 00:12:09;;;;;;;1.83;1.63;;;;;;;8.05;53.97;96606.50;5034733;28;20026;-75
2021/04/06 00:14:38;;;;;;;1.85;1.60;;;;;;;8.06;54.15;96610.81;5033988;28;20115;-74
2021/04/06 00:17:06;;;;;;;4.90;2.67;;;;;;;8.01;54.99;96602.81;5034198;28;20036;-75
2021/04/06 00:19:34;;;;;;;2.97;1.65;;;;;;;8.03;55.27;96599.75;5016462;28;20025;-75
2021/04/06 00:22:01;;;;;;;3.65;1.80;;;;;;;8.10;55.22;96602.84;5034231;28;20026;-75
2021/04/06 00:24:30;;;;;;;2.05;1.63;;;;;;;8.17;55.28;96603.22;5033782;28;20500;-74
2021/04/06 00:27:16;;;;;;;3.58;1.55;;;;;;;8.13;55.51;96602.22;5033945;28;20504;-74
2021/04/06 00:29:44;;;;;;;4.55;1.70;;;;;;;8.19;55.45;96592.78;5033884;28;20187;-76
2021/04/06 00:32:13;;;;;;;4.57;1.65;;;;;;;8.20;55.76;96593.59;5034104;28;20119;-74
2021/04/06 00:34:40;;;;;;;2.20;1.40;;;;;;;8.21;55.94;96585.09;5033795;28;20032;-76
2021/04/06 00:37:16;;;;;;;5.22;1.85;;;;;;;8.19;56.24;96587.34;5033568;28;20115;-75
2021/04/06 00:39:43;;;;;;;2.63;1.85;;;;;;;8.23;56.15;96591.06;5033691;28;20386;-74
2021/04/06 00:42:18;;;;;;;2.92;1.73;;;;;;;8.20;56.41;96588.97;5033446;28;20514;-75
2021/04/06 00:44:48;;;;;;;3.22;1.50;;;;;;;8.17;56.67;96575.97;5015696;28;20044;-74
2021/04/06 00:47:15;;;;;;;2.95;2.20;;;;;;;8.13;57.40;96580.44;5033376;28;20063;-74
2021/04/06 00:49:43;;;;;;;3.55;1.55;;;;;;;8.09;57.75;96580.25;5033412;28;20064;-74
2021/04/06 00:52:10;;;;;;;2.60;1.75;;;;;;;8.08;58.04;96575.13;5033816;28;20026;-73
2021/04/06 00:54:36;;;;;;;1.60;1.50;;;;;;;8.09;58.08;96579.44;5033221;28;20029;-75
2021/04/06 00:57:11;;;;;;;2.10;1.40;;;;;;;8.15;57.67;96582.81;5033276;28;20108;-75
2021/04/06 00:59:38;;;;;;;3.22;1.58;;;;;;;8.14;58.04;96581.25;5033259;28;20033;-75
2021/04/06 01:02:07;;;;;;;2.45;2.25;;;;;;;8.15;58.20;96574.66;5032752;28;20031;-74
2021/04/06 01:04:36;;;;;;;2.88;1.67;;;;;;;8.20;58.16;96563.63;5015491;28;20033;-75
2021/04/06 01:07:16;;;;;;;2.72;1.58;;;;;;;8.20;58.74;96564.44;5033245;28;20072;-75
2021/04/06 01:09:48;;;;;;;2.30;1.80;;;;;;;8.23;58.80;96563.00;5033174;28;20026;-74
2021/04/06 01:12:18;;;;;;;3.45;1.92;;;;;;;8.11;59.08;96571.78;5015421;28;20025;-74
2021/04/06 01:14:47;;;;;;;2.35;1.85;;;;;;;8.14;59.07;96568.44;5015282;28;20071;-74
2021/04/06 01:17:17;;;;;;;5.22;2.13;;;;;;;8.17;59.11;96562.34;5033310;28;20033;-75
2021/04/06 01:19:46;;;;;;;5.53;3.95;;;;;;;8.15;59.42;96553.69;5032625;28;20033;-75
2021/04/06 01:22:17;;;;;;;2.63;1.88;;;;;;;8.21;59.14;96555.13;5033970;28;20029;-74
2021/04/06 01:24:44;;;;;;;2.88;1.83;;;;;;;8.17;59.39;96564.28;5033167;28;20029;-74
2021/04/06 01:27:15;;;;;;;2.50;1.67;;;;;;;8.20;59.55;96553.56;5032905;28;20049;-75
2021/04/06 01:29:54;;;;;;;2.25;1.70;;;;;;;8.21;59.40;96546.16;5033252;28;20033;-75
2021/04/06 01:32:21;;;;;;;3.08;2.15;;;;;;;8.23;59.57;96555.66;5032794;28;20018;-75
2021/04/06 01:34:49;;;;;;;2.00;1.35;;;;;;;8.20;59.84;96548.09;5032735;28;20076;-75
2021/04/06 01:37:19;;;;;;;2.58;1.80;;;;;;;8.22;59.75;96543.13;5032850;28;20025;-75
2021/04/06 01:39:47;;;;;;;2.13;1.70;;;;;;;8.24;59.77;96527.28;5033007;28;20036;-75
2021/04/06 01:42:13;;;;;;;3.70;1.90;;;;;;;8.20;59.66;96530.97;5033561;28;20048;-75
2021/04/06 01:44:41;;;;;;;3.13;1.60;;;;;;;8.21;59.34;96536.06;5033485;28;20033;-75
2021/04/06 01:47:08;;;;;;;3.40;1.88;;;;;;;8.21;59.51;96524.38;5033470;28;20029;-75
2021/04/06 01:49:34;;;;;;;1.83;1.67;;;;;;;8.17;59.36;96513.34;5033330;28;20042;-75
2021/04/06 01:52:01;;;;;;;3.63;1.60;;;;;;;8.19;59.72;96511.09;5014971;28;20513;-75
2021/04/06 01:54:26;;;;;;;2.20;2.00;;;;;;;8.12;59.89;96509.94;5032509;28;20718;-75
2021/04/06 01:56:53;;;;;;;3.75;2.97;;;;;;;8.15;59.79;96514.75;5032260;28;20108;-76
2021/04/06 01:59:27;;;;;;;4.00;1.80;;;;;;;8.06;59.96;96518.25;5032533;28;20030;-75
2021/04/06 02:01:55;;;;;;;2.63;2.22;;;;;;;8.11;60.07;96511.88;5032326;28;20032;-74
2021/04/06 02:04:23;;;;;;;2.13;1.65;;;;;;;8.04;60.39;96506.06;5032320;28;20041;-74
2021/04/06 02:06:50;;;;;;;1.98;1.50;;;;;;;7.98;60.57;96518.22;5031935;28;20406;-76
2021/04/06 02:09:18;;;;;;;2.25;1.85;;;;;;;7.96;61.10;96520.44;5031921;28;20033;-74
2021/04/06 02:11:45;;;;;;;2.08;1.55;;;;;;;7.94;61.24;96514.50;5032108;28;20022;-74
2021/04/06 02:14:23;;;;;;;1.88;1.70;;;;;;;7.97;61.19;96514.69;5032060;28;20026;-73
2021/04/06 02:16:53;;;;;;;1.88;1.58;;;;;;;8.00;61.34;96505.91;5032037;28;20021;-75
2021/04/06 02:19:30;;;;;;;3.70;2.65;;;;;;;8.04;61.44;96497.91;5031855;28;20021;-74
2021/04/06 02:21:55;;;;;;;2.22;1.85;;;;;;;7.98;61.63;96507.34;5031955;28;20026;-75
2021/04/06 02:24:49;;;;;;;1.25;1.15;;;;;;;7.96;61.83;96493.22;5031901;28;20159;-75
2021/04/06 02:27:17;;;;;;;3.58;1.92;;;;;;;8.03;61.98;96493.56;5028971;28;20053;-75
2021/04/06 02:29:44;;;;;;;2.40;1.42;;;;;;;7.94;62.16;96490.00;5031090;28;20112;-74
2021/04/06 02:32:12;;;;;;;1.70;1.55;;;;;;;7.92;62.45;96497.69;5031337;28;20033;-75
2021/04/06 02:34:39;;;;;;;2.92;1.63;;;;;;;7.90;62.45;96486.31;5031770;28;20024;-75
2021/04/06 02:37:12;;;;;;;4.03;1.45;;;;;;;7.95;62.45;96488.91;5031516;28;20021;-75
2021/04/06 02:39:38;;;;;;;1.67;1.58;;;;;;;7.89;62.76;96490.16;5031439;28;20032;-74
2021/04/06 02:42:32;;;;;;;2.63;1.65;;;;;;;7.89;62.90;96501.06;5031172;28;20323;-75
2021/04/06 02:45:18;;;;;;;4.05;1.88;;;;;;;7.84;63.23;96495.72;5031086;28;20036;-75
2021/04/06 02:48:08;;;;;;;4.13;1.53;;;;;;;7.84;63.48;96496.53;5013658;28;20034;-76
2021/04/06 02:50:42;;;;;;;1.40;1.30;;;;;;;7.90;63.85;96489.03;5031225;28;20458;-75
2021/04/06 02:53:10;;;;;;;3.25;2.10;;;;;;;7.97;63.80;96497.53;5031726;28;20033;-75
2021/04/06 02:55:38;;;;;;;2.75;1.45;;;;;;;7.86;64.57;96482.63;5031262;28;20433;-75
2021/04/06 02:58:14;;;;;;;2.03;1.75;;;;;;;7.91;64.99;96487.91;5031163;28;20112;-76
2021/04/06 03:00:40;;;;;;;;;;;;;;;7.93;65.78;96499.28;5031693;28;20108;-75
2021/04/06 03:03:24;;;;;;;1.98;1.75;;;;;;;7.98;65.88;96504.59;5031395;28;20019;-75
2021/04/06 03:06:01;;;;;;;3.50;1.67;;;;;;;7.89;65.83;96510.00;5031401;28;20025;-75
2021/04/06 03:08:30;;;;;;;;;;;;;;;7.91;66.37;96509.69;5029805;28;20034;-75
2021/04/06 03:10:56;;;;;;;2.05;1.73;;;;;;;7.90;67.06;96503.44;5019432;28;19913;-75
2021/04/06 03:13:23;;;;;;;3.40;1.90;;;;;;;7.99;67.08;96503.47;5013070;28;20124;-75
2021/04/06 03:15:50;;;;;;;4.15;1.73;;;;;;;8.05;67.35;96502.22;4999441;28;20493;-75
2021/04/06 03:18:16;;;;;;;3.92;2.75;;;;;;;7.94;66.83;96509.06;5011070;28;20041;-74
2021/04/06 03:20:42;;;;;;;4.80;2.10;;;;;;;7.94;66.80;96506.34;4993402;28;20033;-74
2021/04/06 03:23:08;;;;;;;2.08;1.55;;;;;;;7.95;68.03;96497.06;5011198;28;20080;-74
2021/04/06 03:25:35;;;;;;;2.55;1.80;;;;;;;7.96;68.03;96504.91;5010700;28;20101;-73
2021/04/06 03:28:09;;;;;;;3.70;2.25;;;;;;;7.98;70.40;96510.88;5024277;28;20029;-74
2021/04/06 03:30:35;;;;;;;3.58;2.33;;;;;;;7.90;69.59;96508.88;5030646;28;20032;-75
2021/04/06 03:33:10;;;;;;;3.00;1.67;;;;;;;7.83;69.61;96515.91;5029967;28;20025;-74
2021/04/06 03:35:38;;;;;;;2.15;1.80;;;;;;;7.78;69.70;96521.47;5012445;28;20033;-74
2021/04/06 03:38:08;;;;;;;6.53;2.00;;;;;;;7.67;70.03;96517.44;5030331;28;20048;-74
2021/04/06 03:40:39;;;;;;;3.42;2.33;;;;;;;7.66;72.83;96526.69;5030254;28;20033;-75
2021/04/06 03:43:14;;;;;;;3.17;2.38;;;;;;;7.53;71.92;96529.19;5029884;28;20029;-75
2021/04/06 03:45:57;;;;;;;3.60;2.30;;;;;;;7.41;72.47;96531.69;5030403;28;20037;-75
2021/04/06 03:48:25;;;;;;;4.47;3.13;;;;;;;7.27;74.77;96535.56;5012792;28;20296;-74
2021/04/06 03:50:51;;;;;;;4.97;2.22;;;;;;;7.27;73.77;96533.66;5030376;28;20264;-75
2021/04/06 03:53:19;;;;;;;2.53;2.33;;;;;;;7.22;75.07;96527.53;5030522;28;20124;-74
2021/04/06 03:56:03;;;;;;;3.65;2.47;;;;;;;7.28;76.17;96532.53;5012612;28;20501;-74
2021/04/06 03:58:34;;;;;;;4.53;2.20;;;;;;;7.09;77.10;96539.25;5030186;28;20036;-74
2021/04/06 04:00:59;;;;;;;4.43;2.38;;;;;;;6.98;78.56;96538.72;5030330;28;20033;-75
2021/04/06 04:03:25;;;;;;;3.90;3.05;;;;;;;6.95;79.98;96542.81;5025246;28;20042;-76
2021/04/06 04:05:50;;;;;;;3.03;2.58;;;;;;;6.88;80.85;96536.22;5010650;28;20041;-75
2021/04/06 04:08:16;;;;;;;6.05;3.60;;;;;;;6.84;81.66;96543.38;5010554;28;20113;-75
2021/04/06 04:10:41;;;;;;;3.42;2.58;;;;;;;6.81;83.15;96543.97;5010267;28;20165;-76
2021/04/06 04:13:07;;;;;;;3.80;3.25;;;;;;;6.64;85.68;96550.03;5010024;28;20037;-75
2021/04/06 04:15:32;;;;;;;;;;;;;;;6.57;86.88;96555.09;5011051;28;20100;-75
2021/04/06 04:17:57;;;;;;;5.10;2.78;;;;;;;6.48;88.31;96555.00;5010476;28;19914;-75
2021/04/06 04:20:23;;;;;;;4.53;3.22;;;;;;;6.34;89.05;96566.97;4993020;28;20466;-76
2021/04/06 04:22:51;;;;;;;4.18;3.28;;;;;;;6.23;91.08;96588.13;5010916;28;20037;-76
2021/04/06 04:25:18;;;;;;;2.85;2.63;;;;;;;5.79;89.97;96593.25;5011482;28;20121;-75
2021/04/06 04:27:44;;;;;;;2.95;2.45;;;;;;;5.23;90.65;96607.69;5010682;28;20029;-75
2021/04/06 04:30:11;;;;;;;1.23;1.13;;;;;;;4.51;90.74;96614.41;5010756;28;20034;-75
2021/04/06 04:32:37;;;;;;;1.75;1.20;;;;;;;4.40;92.74;96621.03;4992773;28;20080;-76
2021/04/06 04:35:04;;;;;;;1.45;1.00;;;;;;;3.98;94.46;96607.44;5009972;28;20026;-76
2021/04/06 04:37:29;;;;;;;1.63;0.90;;;;;;;3.79;93.66;96628.97;5010295;28;20057;-75
2021/04/06 04:39:55;;;;;;;0.75;0.70;;;;;;;3.45;94.29;96626.31;5010790;28;20057;-75
2021/04/06 04:42:20;;;;;;;0.70;0.70;;;;;;;3.11;95.48;96650.59;5010237;28;20410;-75
2021/04/06 04:44:45;;;;;;;;;;;;;;;2.82;95.44;96646.97;5010894;28;20076;-75
2021/04/06 04:47:11;;;;;;;0.95;0.77;;;;;;;2.64;96.15;96653.84;5010176;28;20389;-75
2021/04/06 04:49:36;;;;;;;0.50;0.50;;;;;;;2.51;94.89;96667.09;5010697;28;20053;-75
2021/04/06 04:52:02;;;;;;;0.60;0.57;;;;;;;2.46;96.33;96689.53;5010496;28;20104;-75
2021/04/06 04:54:28;;;;;;;0.57;0.40;;;;;;;2.21;95.72;96675.31;5013404;28;20061;-75
2021/04/06 04:56:53;;;;;;;;;;;;;;;2.08;95.82;96682.88;4996786;28;20426;-75
2021/04/06 04:59:19;;;;;;;0.75;0.60;;;;;;;1.90;97.33;96675.38;5014008;28;20370;-74
2021/04/06 05:01:44;;;;;;;;;;;;;;;1.87;98.07;96686.69;4996492;28;20414;-75
2021/04/06 05:04:10;;;;;;;2.28;0.80;;;;;;;1.73;99.27;96699.09;5023927;28;19917;-75
2021/04/06 05:06:35;;;;;;;;;;;;;;;1.73;100.00;96707.16;5034434;28;20030;-74
2021/04/06 05:09:01;;;;;;;2.75;0.90;;;;;;;1.74;100.00;96706.09;5033317;28;20258;-74
2021/04/06 05:11:26;;;;;;;;;;;;;;;1.52;100.00;96729.81;5034075;28;21166;-76
2021/04/06 05:13:54;;;;;;;0.82;0.80;;;;;;;1.46;100.00;96722.78;5033685;28;19948;-75
2021/04/06 05:16:19;;;;;;;2.85;0.65;;;;;;;1.35;100.00;96743.50;5033973;28;20033;-75
2021/04/06 05:18:48;;;;;;;0.63;0.63;;;;;;;1.07;100.00;96757.44;5017248;28;20027;-76
2021/04/06 05:21:14;;;;;;;0.90;0.90;;;;;;;1.04;100.00;96748.00;5017469;28;20118;-75
2021/04/06 05:23:39;;;;;;;0.63;0.60;;;;;;;1.14;100.00;96751.81;5021535;28;20025;-75
2021/04/06 05:26:05;;;;;;;0.60;0.60;;;;;;;1.05;100.00;96749.66;5039544;28;20492;-76
2021/04/06 05:28:33;;;;;;;0.70;0.70;;;;;;;0.95;100.00;96735.34;5027044;28;20029;-75
2021/04/06 05:30:59;;;;;;;0.60;0.60;;;;;;;0.96;100.00;96750.41;5032442;28;20025;-75
2021/04/06 05:33:24;;;;;;;0.57;0.57;;;;;;;0.93;100.00;96778.69;5030933;28;20592;-73
2021/04/06 05:35:51;;;;;;;0.70;0.40;;;;;;;0.81;100.00;96785.34;5022378;28;20041;-74
2021/04/06 05:38:17;;;;;;;0.93;0.50;;;;;;;0.90;100.00;96783.78;5031811;28;20037;-75
2021/04/06 05:40:42;;;;;;;0.40;0.40;;;;;;;0.74;100.00;96792.84;5012256;28;20379;-74
2021/04/06 05:43:09;;;;;;;0.45;0.45;;;;;;;0.76;100.00;96815.72;5013625;28;20055;-75
2021/04/06 05:45:35;;;;;;;0.52;0.52;;;;;;;0.68;100.00;96818.91;5031058;28;20034;-75
2021/04/06 05:48:04;;;;;;;0.52;0.52;;;;;;;0.80;100.00;96824.91;5031475;28;20029;-76
2021/04/06 05:50:30;;;;;;;0.85;0.68;;;;;;;0.64;100.00;96804.34;5013493;28;20045;-76
2021/04/06 05:52:55;;;;;;;0.52;0.52;;;;;;;0.65;100.00;96829.38;5031496;28;20038;-75
2021/04/06 05:55:24;;;;;;;0.90;0.90;;;;;;;0.68;100.00;96837.75;5031555;28;20053;-75
2021/04/06 05:57:55;;;;;;;0.60;0.60;;;;;;;0.53;100.00;96840.34;5013130;28;20022;-75
2021/04/06 06:00:27;;;;;;;1.02;0.70;;;;;;;0.66;100.00;96847.94;5031071;28;20048;-75
2021/04/06 06:02:52;;;;;;;1.38;0.85;;;;;;;0.69;100.00;96858.19;5000004;28;20025;-76
2021/04/06 06:05:18;;;;;;;0.88;0.88;;;;;;;0.41;100.00;96834.31;5012552;28;20102;-76
2021/04/06 06:07:43;;;;;;;0.80;0.73;;;;;;;0.56;100.00;96864.03;5012942;28;20096;-75
2021/04/06 06:10:32;;;;;;;1.50;1.40;;;;;;;0.55;100.00;96878.53;5030896;28;20022;-75
2021/04/06 06:13:23;;;;;;;1.50;1.40;;;;;;;0.62;100.00;96886.41;5031012;28;20508;-74
2021/04/06 06:16:25;;;;;;;1.13;1.02;;;;;;;0.51;100.00;96894.38;5013124;28;20362;-77
2021/04/06 06:18:52;;;;;;;1.30;1.20;;;;;;;0.53;100.00;96907.59;4931087;29;20040;-76
2021/04/06 06:21:17;;;;;;;1.75;1.30;;;;;;;0.65;100.00;96921.66;5011655;28;20620;-75
2021/04/06 06:23:43;;;;;;;3.97;2.33;;;;;;;0.46;100.00;96894.34;5031117;28;20121;-78
2021/04/06 06:26:12;;;;;;;;;;;;;;;0.65;100.00;96931.63;5013226;28;20402;-76
2021/04/06 06:28:38;;;;;;;2.15;1.73;;;;;;;0.64;100.00;96938.88;5026029;28;20278;-76
2021/04/06 06:31:03;;;;;;;3.83;2.17;;;;;;;0.59;100.00;96932.63;5029194;28;20025;-74
2021/04/06 06:33:31;;;;;;;;;;;;;;;0.64;100.00;96941.56;5030044;28;20571;-75
2021/04/06 06:36:12;;;;;;;1.73;1.48;;;;;;;0.62;100.00;96948.25;5025707;28;19921;-75
2021/04/06 06:38:39;;;;;;;4.55;1.75;;;;;;;0.55;100.00;96937.72;5025894;28;20025;-74
2021/04/06 06:41:12;;;;;;;2.08;1.83;;;;;;;0.53;100.00;96959.47;5029864;28;20025;-75
2021/04/06 06:43:43;;;;;;;5.13;2.08;;;;;;;0.49;100.00;96947.63;5028536;28;20108;-75
2021/04/06 06:46:30;;;;;;;2.88;2.20;;;;;;;0.72;100.00;96962.59;5029718;28;20103;-75
2021/04/06 06:49:02;;;;;;;3.88;2.30;;;;;;;0.57;100.00;96962.47;5022469;28;20383;-75
2021/04/06 06:51:29;;;;;;;3.20;2.75;;;;;;;0.63;100.00;96974.91;5026519;28;20046;-75
2021/04/06 06:53:56;;;;;;;3.45;2.15;;;;;;;0.69;100.00;96976.56;5029620;28;20029;-75
2021/04/06 06:56:35;;;;;;;2.58;2.38;;;;;;;0.69;100.00;96991.91;5025230;28;20034;-76
2021/04/06 06:59:01;;;;;;;2.40;2.20;;;;;;;0.63;100.00;96980.28;5010889;28;20063;-75
2021/04/06 07:01:32;;;;;;;3.67;2.67;;;;;;;0.70;100.00;96980.88;5029216;28;20070;-75
2021/04/06 07:04:00;;;;;;;4.32;3.92;;;;;;;0.79;100.00;96997.34;5029561;28;20473;-74
2021/04/06 07:06:25;;;;;;;6.18;4.82;;;;;;;0.76;100.00;97003.25;5024876;28;20037;-75
2021/04/06 07:08:51;;;;;;;10.63;6.57;;;;;;;0.68;100.00;97001.88;5009066;28;20041;-74
2021/04/06 07:11:18;;;;;;;7.55;5.25;;;;;;;0.79;100.00;97027.78;5009483;28;20045;-73
2021/04/06 07:13:44;;;;;;;4.35;3.65;;;;;;;0.74;100.00;97021.53;5021039;28;20040;-75
2021/04/06 07:16:14;;;;;;;3.85;3.10;;;;;;;0.60;100.00;97023.84;5009976;28;20083;-74
2021/04/06 07:18:42;;;;;;;2.45;2.20;;;;;;;0.66;100.00;97036.25;5008324;28;20032;-74
2021/04/06 07:21:10;;;;;;;3.08;2.72;;;;;;;0.81;100.00;97033.72;5029063;28;20025;-74
2021/04/06 07:23:37;;;;;;;2.88;2.63;;;;;;;0.66;100.00;97047.03;5028462;28;20039;-74
2021/04/06 07:26:07;;;;;;;5.63;2.15;;;;;;;0.55;100.00;97045.31;5028184;28;20482;-74
2021/04/06 07:28:34;;;;;;;6.38;3.00;;;;;;;0.62;100.00;97043.25;5024210;28;20033;-74
2021/04/06 07:31:02;;;;;;;6.13;3.47;;;;;;;0.61;100.00;97040.78;5028830;28;20021;-74
2021/04/06 07:33:30;;;;;;;4.07;2.75;;;;;;;0.38;100.00;97044.59;5028977;28;20037;-74
2021/04/06 07:35:59;;;;;;;9.80;5.45;;;;;;;0.62;100.00;97043.25;5027868;28;20405;-74
2021/04/06 07:38:24;;;;;;;4.63;2.75;;;;;;;0.62;100.00;97035.16;5010468;28;20406;-74
2021/04/06 07:40:52;;;;;;;6.43;4.38;;;;;;;0.70;100.00;97039.25;5030662;28;20030;-74
2021/04/06 07:43:17;;;;;;;6.03;4.03;;;;;;;0.56;100.00;97032.69;5032906;28;20112;-75
2021/04/06 07:45:43;;;;;;;6.80;3.25;;;;;;;0.64;100.00;97040.28;5030211;28;20026;-74
2021/04/06 07:48:10;;;;;;;4.47;3.08;;;;;;;0.57;100.00;97053.94;5017609;28;20025;-74
2021/04/06 07:50:38;;;;;;;3.88;2.88;;;;;;;0.58;100.00;97054.75;5028708;28;20520;-73
2021/04/06 07:53:19;;;;;;;4.70;3.10;;;;;;;0.65;100.00;97056.19;5028802;28;20024;-74
2021/04/06 07:55:45;;;;;;;3.20;2.25;;;;;;;0.51;100.00;97050.38;5028570;28;20115;-75
2021/04/06 07:58:10;;;;;;;3.05;2.10;;;;;;;0.47;100.00;97072.69;5021040;28;20060;-74
2021/04/06 08:00:49;;;;;;;3.38;2.13;;;;;;;0.50;100.00;97083.72;5009492;28;20026;-74
2021/04/06 08:04:06;;;;;;;3.08;2.40;;;;;;;0.54;100.00;97092.91;5026145;28;20052;-73
2021/04/06 08:06:58;;;;;;;1.50;1.40;;;;;;;0.15;100.00;97104.03;4984019;28;20128;-74
2021/04/06 08:09:29;;;;;;;1.13;1.02;;;;;;;0.24;100.00;97115.97;5027625;28;20544;-74
2021/04/06 08:12:17;;;;;;;2.25;1.90;;;;;;;0.26;100.00;97125.41;5028462;28;20053;-74
2021/04/06 08:14:59;;;;;;;1.73;1.35;;;;;;;0.10;100.00;97090.50;5024738;28;20033;-75
2021/04/06 08:17:24;;;;;;;2.05;1.85;;;;;;;0.30;100.00;97109.59;5026308;28;20476;-75
2021/04/06 08:19:52;;;;;;;3.22;2.05;;;;;;;0.27;100.00;97107.41;5008428;28;20513;-74
2021/04/06 08:22:29;;;;;;;2.08;1.52;;;;;;;0.27;100.00;97102.84;5026493;28;20046;-74
2021/04/06 08:25:16;;;;;;;3.13;2.60;;;;;;;0.24;100.00;97108.72;5027041;28;20091;-73
2021/04/06 08:27:44;;;;;;;5.07;1.85;;;;;;;0.29;100.00;97094.50;5024578;28;20089;-74
2021/04/06 08:30:15;;;;;;;2.00;1.73;;;;;;;0.46;100.00;97106.00;5026483;28;20025;-74
2021/04/06 08:32:59;;;;;;;2.90;1.80;;;;;;;0.32;100.00;97102.06;5031196;28;20517;-74
2021/04/06 08:35:53;;;;;;;5.40;1.90;;;;;;;0.25;100.00;97120.28;5028889;28;20065;-74
2021/04/06 08:38:33;;;;;;;1.92;1.42;;;;;;;0.26;100.00;97124.59;5000480;28;20060;-75
2021/04/06 08:41:03;;;;;;;1.52;1.42;;;;;;;0.27;100.00;97145.03;5030412;28;20059;-75
2021/04/06 08:43:31;;;;;;;2.17;1.98;;;;;;;0.29;100.00;97138.34;5031732;28;20022;-74
2021/04/06 08:46:00;;;;;;;2.00;1.60;;;;;;;0.43;100.00;97134.22;5032164;28;20064;-75
2021/04/06 08:48:50;;;;;;;3.72;1.88;;;;;;;0.47;100.00;97145.31;5031416;28;20148;-75
2021/04/06 08:51:29;;;;;;;2.10;1.85;;;;;;;0.54;100.00;97145.91;5013577;28;20046;-75
2021/04/06 08:54:01;;;;;;;2.42;2.20;;;;;;;0.29;100.00;97149.09;5018589;28;20505;-74
2021/04/06 08:56:33;;;;;;;2.45;2.22;;;;;;;0.38;100.00;97157.53;5031365;28;20034;-72
2021/04/06 08:59:32;;;;;;;2.38;2.17;;;;;;;0.62;100.00;97168.88;5029066;28;20156;-73
2021/04/06 09:02:12;;;;;;;2.33;1.80;;;;;;;0.45;100.00;97164.38;5022947;28;20073;-73
2021/04/06 09:04:41;;;;;;;3.83;1.98;;;;;;;0.59;100.00;97175.56;5031178;28;20035;-73
2021/04/06 09:07:15;;;;;;;2.22;1.30;;;;;;;0.51;100.00;97173.31;5030780;28;20032;-73
2021/04/06 09:09:41;;;;;;;3.90;2.38;;;;;;;0.36;100.00;97175.81;5029745;28;20104;-73
2021/04/06 09:12:07;;;;;;;6.32;2.72;;;;;;;0.35;100.00;97171.47;5014476;28;20459;-73
2021/04/06 09:14:32;;;;;;;3.88;2.92;;;;;;;0.48;100.00;97160.34;5018822;28;20048;-73
2021/04/06 09:16:58;;;;;;;2.67;2.42;;;;;;;0.37;100.00;97150.56;5031310;28;20474;-74
2021/04/06 09:19:25;;;;;;;;;;;;;;;0.57;100.00;97149.97;5031093;28;20041;-73
2021/04/06 09:21:56;;;;;;;3.65;2.10;;;;;;;0.57;100.00;97150.78;5031030;28;19917;-75
2021/04/06 09:24:25;;;;;;;2.33;1.80;;;;;;;0.41;100.00;97141.72;5024730;28;20038;-73
2021/04/06 09:26:52;;;;;;;1.98;1.77;;;;;;;0.45;100.00;97152.78;5030011;28;20030;-73
2021/04/06 09:29:23;;;;;;;3.80;1.73;;;;;;;0.40;100.00;97164.31;5030191;28;20036;-73
2021/04/06 09:31:50;;;;;;;1.63;1.52;;;;;;;0.28;100.00;97181.63;5030044;28;20033;-73
2021/04/06 09:34:29;;;;;;;3.58;1.67;;;;;;;0.42;100.00;97178.31;5030666;28;20509;-74
2021/04/06 09:37:06;;;;;;;3.15;2.45;;;;;;;0.31;100.00;97173.06;5030214;28;20091;-75
2021/04/06 09:39:33;;;;;;;2.90;1.98;;;;;;;-0.06;100.00;97160.19;5029364;28;20108;-73
2021/04/06 09:41:59;;;;;;;2.38;1.67;;;;;;;-0.13;100.00;97169.50;5029174;28;20071;-74
2021/04/06 09:44:28;;;;;;;10.32;1.92;;;;;;;-0.25;100.00;97180.31;5025228;28;20022;-73
2021/04/06 09:46:56;;;;;;;2.17;1.98;;;;;;;-0.04;100.00;97198.41;5029149;28;20116;-73
2021/04/06 09:49:22;;;;;;;2.45;1.90;;;;;;;-0.08;100.00;97191.88;5030101;28;20028;-74
2021/04/06 09:51:50;;;;;;;3.15;2.15;;;;;;;-0.17;100.00;97182.63;5030301;28;20025;-73
2021/04/06 09:54:31;;;;;;;3.63;2.13;;;;;;;-0.10;100.00;97172.50;5029331;28;20037;-74
2021/04/06 09:56:58;;;;;;;3.00;2.30;;;;;;;0.03;100.00;97173.22;5031192;28;20116;-75
2021/04/06 09:59:24;;;;;;;2.05;1.63;;;;;;;-0.05;100.00;97194.06;5013588;28;20033;-74
2021/04/06 10:01:52;;;;;;;3.55;2.15;;;;;;;-0.25;100.00;97176.84;5015236;28;20176;-74
2021/04/06 10:04:51;;;;;;;5.25;2.97;;;;;;;-0.18;100.00;97194.41;5032240;28;20045;-73
2021/04/06 10:07:33;;;;;;;1.38;1.27;;;;;;;-0.23;100.00;97197.03;4966793;28;20048;-74
2021/04/06 10:10:03;;;;;;;2.45;1.98;;;;;;;-0.26;100.00;97208.28;5009283;28;20033;-74
2021/04/06 10:12:32;;;;;;;2.50;2.10;;;;;;;-0.25;100.00;97214.47;5011879;28;20474;-74
2021/04/06 10:14:59;;;;;;;4.35;2.08;;;;;;;-0.09;100.00;97221.66;5012366;28;20040;-74
2021/04/06 10:17:40;;;;;;;1.83;1.63;;;;;;;-0.14;100.00;97219.75;5027312;28;20045;-75
2021/04/06 10:20:09;;;;;;;4.88;1.77;;;;;;;-0.08;99.96;97223.31;5013562;28;20025;-73
2021/04/06 10:22:46;;;;;;;6.78;2.38;;;;;;;-0.20;99.02;97212.66;5032827;28;20025;-72
2021/04/06 10:25:16;;;;;;;;;;;;;;;-0.01;98.69;97205.97;5028087;28;20042;-73
2021/04/06 10:27:47;;;;;;;1.45;1.35;;;;;;;0.04;97.67;97199.00;5011239;28;19917;-73
2021/04/06 10:30:19;;;;;;;1.95;1.58;;;;;;;0.15;96.84;97195.44;5026744;28;20017;-73
2021/04/06 10:32:47;;;;;;;1.55;1.25;;;;;;;0.22;95.62;97201.44;5028407;28;20026;-73
2021/04/06 10:35:22;;;;;;;1.17;0.95;;;;;;;0.23;94.35;97198.50;5010434;28;20244;-73
2021/04/06 10:37:56;;;;;;;3.17;1.33;;;;;;;0.18;93.78;97205.69;5028394;28;20202;-73
2021/04/06 10:40:35;;;;;;;1.00;1.00;;;;;;;0.21;94.34;97192.56;5028081;28;20025;-76
2021/04/06 10:43:12;;;;;;;2.63;1.40;;;;;;;0.26;93.81;97184.56;5027823;28;20036;-73
2021/04/06 10:45:41;;;;;;;1.77;1.30;;;;;;;0.32;91.94;97180.06;5027437;28;20029;-73
2021/04/06 10:48:22;;;;;;;2.55;1.55;;;;;;;0.57;91.44;97180.38;5028124;28;20056;-74
2021/04/06 10:50:55;;;;;;;1.50;1.10;;;;;;;0.37;90.56;97164.00;5029809;28;20561;-74
2021/04/06 10:53:27;;;;;;;1.65;1.20;;;;;;;0.49;91.47;97160.13;5014541;28;20025;-74
2021/04/06 10:55:56;;;;;;;1.45;1.25;;;;;;;0.57;90.03;97174.16;5015330;28;20037;-75
2021/04/06 10:58:30;;;;;;;1.48;1.00;;;;;;;0.63;87.57;97160.53;5031710;28;20553;-74
2021/04/06 11:01:08;;;;;;;2.95;1.40;;;;;;;0.71;88.44;97152.03;5010514;28;20410;-74
2021/04/06 11:03:48;;;;;;;3.58;1.98;;;;;;;0.96;87.22;97163.06;5031053;28;20032;-75
2021/04/06 11:06:20;;;;;;;2.38;1.77;;;;;;;1.67;84.95;97154.78;5031363;28;20052;-75
2021/04/06 11:08:49;;;;;;;4.05;1.98;;;;;;;1.96;83.33;97151.50;5030233;28;20426;-78
2021/04/06 11:11:35;;;;;;;7.20;2.25;;;;;;;1.90;85.49;97144.44;5013665;28;20164;-77
2021/04/06 11:14:04;;;;;;;3.65;1.92;;;;;;;1.66;86.43;97143.19;5030646;28;20048;-74
2021/04/06 11:16:30;;;;;;;8.07;3.00;;;;;;;1.69;86.98;97126.53;5013347;28;20091;-75
2021/04/06 11:19:00;;;;;;;5.72;2.05;;;;;;;1.70;87.39;97128.13;5010695;28;20497;-75
2021/04/06 11:21:26;;;;;;;2.78;2.03;;;;;;;1.84;86.00;97129.31;5028792;28;20029;-77
2021/04/06 11:23:52;;;;;;;2.53;1.50;;;;;;;1.75;86.65;97128.19;5031022;28;20032;-75
2021/04/06 11:26:17;;;;;;;8.55;1.40;;;;;;;1.63;84.85;97137.53;5015265;28;20124;-85
2021/04/06 11:28:43;;;;;;;2.42;1.52;;;;;;;1.79;84.79;97123.88;5022383;28;20163;-77
2021/04/06 11:31:09;;;;;;;2.83;1.55;;;;;;;1.88;84.63;97146.56;5011863;28;20466;-75
2021/04/06 11:33:34;;;;;;;;;;;;;;;1.84;86.01;97139.28;5029214;28;20096;-76
2021/04/06 11:35:59;;;;;;;2.40;1.98;;;;;;;1.70;86.74;97138.09;5027595;28;19912;-77
2021/04/06 11:38:25;;;;;;;;;;;;;;;2.01;87.02;97140.72;5010311;28;20040;-75
2021/04/06 11:40:50;;;;;;;2.53;2.10;;;;;;;1.79;87.59;97129.25;5026772;28;19917;-75
2021/04/06 11:43:15;;;;;;;7.30;2.95;;;;;;;2.01;86.50;97129.13;5026504;28;21139;-75
2021/04/06 11:45:41;;;;;;;7.50;2.85;;;;;;;1.81;85.16;97135.22;5027180;28;20466;-74
2021/04/06 11:48:06;;;;;;;6.78;2.92;;;;;;;1.56;84.86;97132.34;5027060;28;20490;-75
2021/04/06 11:50:32;;;;;;;2.55;1.80;;;;;;;1.55;85.94;97138.78;5027042;28;20041;-76
2021/04/06 11:52:57;;;;;;;2.75;2.15;;;;;;;1.26;87.14;97129.38;5026980;28;20029;-76
2021/04/06 11:55:23;;;;;;;4.07;1.70;;;;;;;1.18;87.87;97136.06;5028117;28;20482;-76
2021/04/06 11:57:48;;;;;;;1.77;1.55;;;;;;;1.13;90.00;97136.00;5028136;28;20033;-75